INFORMAÇÕES METEOROLÓGICAS
METAR FOR SBRJ
ADDS - METARS form results

(1411 UTC 20 April 2018)
Data provider http://aviationweather.gov/adds/metars/
 
METAR text: SBRJ 201400Z 01004KT 9999 FEW020 27/21 Q1018
Conditions at: SBRJ (SANTOS DUMONT/RI, BR) observed 1400 UTC 20 April 2018
Temperature: 27.0°C (81°F)
Dewpoint: 21.0°C (70°F) [RH = 70%]
Pressure (altimeter): 30.06 inches Hg (1018.0 mb)
Winds: from the N (10 degrees) at 5 MPH (4 knots; 2.1 m/s)
Visibility: 6 or more miles (10+ km)
Ceiling: at least 12,000 feet AGL
Clouds: few clouds at 2000 feet AGL
Weather: no significant weather observed at this time

Forecast for: SBRJ (SANTOS DUMONT/RI, BR)
Text: TAF SBRJ 200840Z 2012/2024 04005KT 9999 FEW020 TX29/2016Z TN24/2024Z
Forecast period: 1200 UTC 20 April 2018 to 0000 UTC 21 April 2018
Forecast type: FROM: standard forecast or significant change
Winds: from the NE (40 degrees) at 6 MPH (5 knots; 2.6 m/s)
Visibility: 6 or more miles (10+ km)
Clouds: few clouds at 2000 feet AGL
Weather: no significant weather forecast for this period
Forecast for: SBRJ (SANTOS DUMONT/RI, BR)
Text: TAF SBRJ 200840Z 2012/2024 04005KT 9999 FEW020 TX29/2016Z TN24/2024Z
Forecast period: 1200 UTC 20 April 2018 to 0000 UTC 21 April 2018
Forecast type: FROM: standard forecast or significant change
Winds: from the NE (40 degrees) at 6 MPH (5 knots; 2.6 m/s)
Visibility: 6 or more miles (10+ km)
Clouds: few clouds at 2000 feet AGL
Weather: no significant weather forecast for this period
Forecast for: SBRJ (SANTOS DUMONT/RI, BR)
Text: TAF SBRJ 200840Z 2012/2024 04005KT 9999 FEW020 TX29/2016Z TN24/2024Z
Forecast period: 1200 to 1500 UTC 20 April 2018
Forecast type: BECOMING: Conditions expected to become as follows by 1400 UTC 20 April 2018
Winds: from the ENE (60 degrees) at 8 MPH (7 knots; 3.6 m/s)
Visibility: 6 or more miles (10+ km)
Clouds: few clouds at 2000 feet AGL
Weather: no significant weather forecast for this period
Forecast for: SBRJ (SANTOS DUMONT/RI, BR)
Text: TAF SBRJ 200840Z 2012/2024 04005KT 9999 FEW020 TX29/2016Z TN24/2024Z
Forecast period: 1200 to 1500 UTC 20 April 2018
Forecast type: BECOMING: Conditions expected to become as follows by 1400 UTC 20 April 2018
Winds: from the ENE (60 degrees) at 8 MPH (7 knots; 3.6 m/s)
Visibility: 6 or more miles (10+ km)
Clouds: few clouds at 2000 feet AGL
Weather: no significant weather forecast for this period
Forecast for: SBRJ (SANTOS DUMONT/RI, BR)
Text: TAF SBRJ 200840Z 2012/2024 04005KT 9999 FEW020 TX29/2016Z TN24/2024Z
Forecast period: 1500 to 1900 UTC 20 April 2018
Forecast type: BECOMING: Conditions expected to become as follows by 1700 UTC 20 April 2018
Winds: from the S (170 degrees) at 12 MPH (10 knots; 5.2 m/s)
Visibility: 6 or more miles (10+ km)
Clouds: few clouds at 2000 feet AGL
Weather: no significant weather forecast for this period
Forecast for: SBRJ (SANTOS DUMONT/RI, BR)
Text: TAF SBRJ 200840Z 2012/2024 04005KT 9999 FEW020 TX29/2016Z TN24/2024Z
Forecast period: 1500 to 1900 UTC 20 April 2018
Forecast type: BECOMING: Conditions expected to become as follows by 1700 UTC 20 April 2018
Winds: from the S (170 degrees) at 12 MPH (10 knots; 5.2 m/s)
Visibility: 6 or more miles (10+ km)
Clouds: few clouds at 2000 feet AGL
Weather: no significant weather forecast for this period
Forecast for: SBRJ (SANTOS DUMONT/RI, BR)
Text: TAF SBRJ 200840Z 2012/2024 04005KT 9999 FEW020 TX29/2016Z TN24/2024Z
Forecast period: 1900 UTC 20 April 2018 to 0000 UTC 21 April 2018
Forecast type: BECOMING: Conditions expected to become as follows by 2100 UTC 20 April 2018
Winds: from the SSE (150 degrees) at 8 MPH (7 knots; 3.6 m/s)
Visibility: 6 or more miles (10+ km)
Clouds: few clouds at 2000 feet AGL
Weather: no significant weather forecast for this period
Forecast for: SBRJ (SANTOS DUMONT/RI, BR)
Text: TAF SBRJ 200840Z 2012/2024 04005KT 9999 FEW020 TX29/2016Z TN24/2024Z
Forecast period: 1900 UTC 20 April 2018 to 0000 UTC 21 April 2018
Forecast type: BECOMING: Conditions expected to become as follows by 2100 UTC 20 April 2018
Winds: from the SSE (150 degrees) at 8 MPH (7 knots; 3.6 m/s)
Visibility: 6 or more miles (10+ km)
Clouds: few clouds at 2000 feet AGL
Weather: no significant weather forecast for this period

 MAPA DO AEROPORTO

 INFORMAÇÕES DA PISTA
Pista 02L Tamanho da pista 4134 ft Largura da pista 98 ft
Elevação da pista 0 ft Ranhura da pista 0 ft Proa da pista 0
Pista 20R Tamanho da pista 4134 ft Largura da pista 98 ft
Elevação da pista 0 ft Ranhura da pista 0 ft Proa da pista 0
Pista 02R Tamanho da pista 4341 ft Largura da pista 138 ft
Elevação da pista 0 ft Ranhura da pista 0 ft Proa da pista 0
Pista 20L Tamanho da pista 4341 ft Largura da pista 138 ft
Elevação da pista 0 ft Ranhura da pista 0 ft Proa da pista 0

 FREQUÊNCIAS DO AEROPORTO
Tipo APP Nome RIO CON Frequência 119.35 MHZ
Tipo ATIS Nome ATIS Frequência 132.65 MHZ
Tipo CLD Nome TFC Frequência 121.05 MHZ
Tipo GND Nome GND Frequência 121.7 MHZ
Tipo TWR Nome RIO TWR Frequência 118.7 MHZ

 AUXÍLIOS DE NAVEGAÇÃO PRÓXIMOS AO AEROPORTO
Tipo NDB Nome Paiol Frequência 415 KHZ



Powered by Mercosul Lnhas Aereas